OCN8D LEIB-EDDF
Flight info
| Callsign | OCN8D |
|---|---|
| Flight time | 1h 59m |
| Altitude | 38000 |
| Route | KABRE DCT ELTAN N853 LUMAS DCT MAXIR DCT LUSOL DCT BODRU DCT OKTET DCT IRMAR DCT KINES DCT VANAS DCT ESOKO DCT GODRA/N0437F390 DCT LADOL/N0434F380 T163 EMPAX EMPAX5B |
| Aircraft | A320/M-SDE2E3FGIJ1LORWXYZ/HB1 |
Departure
| Time | 2026-05-06 04:19 |
|---|---|
| Airport | Ibiza Airport (LEIB) |
Arrival
| Time | 2026-05-06 06:18 |
|---|---|
| Airport | Frankfurt Main Airport (EDDF) |
| Time | Latitude | Longitude | Altitude | Speed | Heading |
|---|---|---|---|---|---|
| 2026-05-06 03:50 | 38.87624 | 1.37394 | 9 ft | 0 kts | 332° |
| 2026-05-06 04:13 | 38.87636 | 1.37386 | 10 ft | 3 kts | 332° |
| 2026-05-06 04:13 | 38.87662 | 1.37355 | 8 ft | 7 kts | 290° |
| 2026-05-06 04:13 | 38.87636 | 1.37280 | 8 ft | 12 kts | 242° |
| 2026-05-06 04:14 | 38.87596 | 1.37185 | 8 ft | 12 kts | 242° |
| 2026-05-06 04:14 | 38.87559 | 1.37091 | 8 ft | 12 kts | 243° |
| 2026-05-06 04:14 | 38.87516 | 1.36989 | 8 ft | 15 kts | 242° |
| 2026-05-06 04:14 | 38.87462 | 1.36859 | 8 ft | 16 kts | 242° |
| 2026-05-06 04:15 | 38.87388 | 1.36806 | 8 ft | 13 kts | 154° |
| 2026-05-06 04:15 | 38.87312 | 1.36855 | 9 ft | 12 kts | 160° |
| 2026-05-06 04:15 | 38.87257 | 1.36793 | 9 ft | 13 kts | 242° |
| 2026-05-06 04:15 | 38.87207 | 1.36669 | 9 ft | 18 kts | 243° |
| 2026-05-06 04:16 | 38.87147 | 1.36524 | 10 ft | 19 kts | 242° |
| 2026-05-06 04:16 | 38.87079 | 1.36360 | 10 ft | 23 kts | 242° |
| 2026-05-06 04:16 | 38.87001 | 1.36175 | 8 ft | 25 kts | 241° |
| 2026-05-06 04:16 | 38.86927 | 1.35991 | 8 ft | 20 kts | 242° |
| 2026-05-06 04:17 | 38.86881 | 1.35876 | 8 ft | 13 kts | 243° |
| 2026-05-06 04:17 | 38.86828 | 1.35815 | 8 ft | 10 kts | 188° |
| 2026-05-06 04:17 | 38.86770 | 1.35853 | 6 ft | 10 kts | 148° |
| 2026-05-06 04:17 | 38.86712 | 1.35904 | 6 ft | 9 kts | 128° |
| 2026-05-06 04:18 | 38.86720 | 1.35949 | 6 ft | 0 kts | 61° |
| 2026-05-06 04:18 | 38.86743 | 1.36004 | 6 ft | 35 kts | 62° |
| 2026-05-06 04:18 | 38.86981 | 1.36581 | 8 ft | 107 kts | 62° |
| 2026-05-06 04:18 | 38.87425 | 1.37648 | 13 ft | 162 kts | 61° |
| 2026-05-06 04:19 | 38.87984 | 1.38987 | 530 ft | 173 kts | 63° |
| 2026-05-06 04:19 | 38.88449 | 1.40427 | 1277 ft | 176 kts | 74° |
| 2026-05-06 04:19 | 38.88709 | 1.41972 | 2015 ft | 178 kts | 79° |
| 2026-05-06 04:19 | 38.88958 | 1.43570 | 2555 ft | 192 kts | 77° |
| 2026-05-06 04:20 | 38.89263 | 1.45341 | 2908 ft | 214 kts | 76° |
| 2026-05-06 04:20 | 38.89602 | 1.47249 | 3477 ft | 222 kts | 75° |
| 2026-05-06 04:20 | 38.89950 | 1.49207 | 4170 ft | 228 kts | 76° |
| 2026-05-06 04:20 | 38.90306 | 1.51195 | 5016 ft | 230 kts | 76° |
| 2026-05-06 04:21 | 38.90663 | 1.53212 | 5837 ft | 233 kts | 78° |
| 2026-05-06 04:21 | 38.90759 | 1.55309 | 6557 ft | 242 kts | 95° |
| 2026-05-06 04:21 | 38.90553 | 1.57563 | 6975 ft | 267 kts | 97° |
| 2026-05-06 04:21 | 38.90313 | 1.60018 | 7547 ft | 285 kts | 98° |
| 2026-05-06 04:22 | 38.90063 | 1.62574 | 8368 ft | 292 kts | 98° |
| 2026-05-06 04:22 | 38.89785 | 1.65188 | 9235 ft | 299 kts | 103° |
| 2026-05-06 04:22 | 38.89147 | 1.67743 | 10083 ft | 303 kts | 116° |
| 2026-05-06 04:23 | 38.87238 | 1.73001 | 11001 ft | 341 kts | 118° |
| 2026-05-06 04:23 | 38.86222 | 1.75785 | 11781 ft | 348 kts | 118° |
| 2026-05-06 04:23 | 38.85187 | 1.78624 | 12558 ft | 355 kts | 118° |
| 2026-05-06 04:23 | 38.84134 | 1.81510 | 12853 ft | 358 kts | 119° |
| 2026-05-06 04:24 | 38.83080 | 1.84409 | 12935 ft | 359 kts | 119° |
| 2026-05-06 04:24 | 38.82050 | 1.87325 | 12944 ft | 360 kts | 114° |
| 2026-05-06 04:24 | 38.81424 | 1.90483 | 13437 ft | 370 kts | 100° |
| 2026-05-06 04:24 | 38.81336 | 1.93810 | 14187 ft | 378 kts | 87° |
| 2026-05-06 04:25 | 38.81829 | 1.97148 | 14880 ft | 385 kts | 72° |
| 2026-05-06 04:25 | 38.82834 | 2.00345 | 15626 ft | 388 kts | 66° |
| 2026-05-06 04:25 | 38.83910 | 2.03532 | 16358 ft | 391 kts | 66° |
| 2026-05-06 04:25 | 38.84999 | 2.06751 | 17087 ft | 395 kts | 66° |
| 2026-05-06 04:26 | 38.86093 | 2.09996 | 17814 ft | 398 kts | 66° |
| 2026-05-06 04:26 | 38.87196 | 2.13277 | 18489 ft | 402 kts | 66° |
| 2026-05-06 04:26 | 38.88305 | 2.16591 | 19081 ft | 407 kts | 66° |
| 2026-05-06 04:26 | 38.89423 | 2.19945 | 19674 ft | 411 kts | 66° |
| 2026-05-06 04:27 | 38.90552 | 2.23333 | 20276 ft | 414 kts | 66° |
| 2026-05-06 04:27 | 38.91691 | 2.26750 | 20867 ft | 418 kts | 66° |
| 2026-05-06 04:27 | 38.92837 | 2.30198 | 21447 ft | 422 kts | 67° |
| 2026-05-06 04:27 | 38.93992 | 2.33679 | 22035 ft | 425 kts | 67° |
| 2026-05-06 04:28 | 38.95158 | 2.37184 | 22607 ft | 429 kts | 67° |
| 2026-05-06 04:28 | 38.96335 | 2.40722 | 23189 ft | 432 kts | 67° |
| 2026-05-06 04:28 | 38.97503 | 2.44245 | 23715 ft | 436 kts | 67° |
| 2026-05-06 04:28 | 38.98689 | 2.47843 | 24190 ft | 439 kts | 68° |
| 2026-05-06 04:29 | 38.99882 | 2.51471 | 24656 ft | 442 kts | 68° |
| 2026-05-06 04:29 | 39.01083 | 2.55128 | 25116 ft | 445 kts | 68° |
| 2026-05-06 04:29 | 39.02295 | 2.58809 | 25579 ft | 448 kts | 68° |
| 2026-05-06 04:29 | 39.03516 | 2.62515 | 26029 ft | 452 kts | 68° |
| 2026-05-06 04:30 | 39.04746 | 2.66250 | 26470 ft | 455 kts | 68° |
| 2026-05-06 04:30 | 39.05981 | 2.70011 | 26880 ft | 458 kts | 68° |
| 2026-05-06 04:30 | 39.07224 | 2.73802 | 27316 ft | 461 kts | 68° |
| 2026-05-06 04:30 | 39.08472 | 2.77617 | 27748 ft | 464 kts | 68° |
| 2026-05-06 04:31 | 39.09726 | 2.81454 | 28183 ft | 467 kts | 68° |
| 2026-05-06 04:31 | 39.10987 | 2.85326 | 28582 ft | 470 kts | 68° |
| 2026-05-06 04:31 | 39.12255 | 2.89221 | 29009 ft | 473 kts | 68° |
| 2026-05-06 04:31 | 39.13531 | 2.93144 | 29428 ft | 476 kts | 68° |
| 2026-05-06 04:32 | 39.14836 | 2.97079 | 29832 ft | 480 kts | 67° |
| 2026-05-06 04:32 | 39.16264 | 3.00979 | 30189 ft | 483 kts | 64° |
| 2026-05-06 04:32 | 39.17798 | 3.04838 | 30526 ft | 485 kts | 63° |
| 2026-05-06 04:32 | 39.19394 | 3.08687 | 30860 ft | 487 kts | 62° |
| 2026-05-06 04:33 | 39.21002 | 3.12535 | 31194 ft | 489 kts | 62° |
| 2026-05-06 04:33 | 39.22601 | 3.16416 | 31522 ft | 491 kts | 63° |
| 2026-05-06 04:33 | 39.24174 | 3.20321 | 31968 ft | 489 kts | 63° |
| 2026-05-06 04:33 | 39.25717 | 3.24228 | 32441 ft | 488 kts | 64° |
| 2026-05-06 04:34 | 39.27240 | 3.28130 | 32901 ft | 486 kts | 64° |
| 2026-05-06 04:34 | 39.28755 | 3.32024 | 33362 ft | 485 kts | 64° |
| 2026-05-06 04:34 | 39.30270 | 3.35911 | 33816 ft | 484 kts | 64° |
| 2026-05-06 04:34 | 39.31789 | 3.39794 | 34153 ft | 486 kts | 64° |
| 2026-05-06 04:35 | 39.33317 | 3.43698 | 34438 ft | 488 kts | 63° |
| 2026-05-06 04:35 | 39.34831 | 3.47559 | 34776 ft | 488 kts | 63° |
| 2026-05-06 04:35 | 39.36383 | 3.51520 | 35110 ft | 488 kts | 63° |
| 2026-05-06 04:35 | 39.37890 | 3.55372 | 35467 ft | 487 kts | 63° |
| 2026-05-06 04:36 | 39.39417 | 3.59285 | 35801 ft | 487 kts | 63° |
| 2026-05-06 04:36 | 39.40935 | 3.63189 | 36139 ft | 486 kts | 63° |
| 2026-05-06 04:36 | 39.42451 | 3.67095 | 36473 ft | 486 kts | 63° |
| 2026-05-06 04:36 | 39.43966 | 3.70999 | 36792 ft | 485 kts | 63° |
| 2026-05-06 04:37 | 39.45478 | 3.74898 | 37104 ft | 485 kts | 63° |
| 2026-05-06 04:37 | 39.46992 | 3.78795 | 37406 ft | 484 kts | 63° |
| 2026-05-06 04:37 | 39.48504 | 3.82684 | 37708 ft | 484 kts | 63° |
| 2026-05-06 04:37 | 39.50012 | 3.86578 | 37917 ft | 484 kts | 63° |
| 2026-05-06 04:38 | 39.51514 | 3.90473 | 37976 ft | 483 kts | 63° |
| 2026-05-06 04:38 | 39.54504 | 3.98257 | 37946 ft | 483 kts | 63° |
| 2026-05-06 04:39 | 39.57504 | 4.06041 | 37947 ft | 483 kts | 60° |
| 2026-05-06 04:39 | 39.59347 | 4.09664 | 37947 ft | 481 kts | 49° |
| 2026-05-06 04:39 | 39.61644 | 4.12795 | 37949 ft | 478 kts | 38° |
| 2026-05-06 04:39 | 39.64303 | 4.15341 | 37949 ft | 473 kts | 27° |
| 2026-05-06 04:40 | 39.67223 | 4.17241 | 37951 ft | 467 kts | 16° |
| 2026-05-06 04:40 | 39.73453 | 4.19112 | 37954 ft | 458 kts | 3° |
| 2026-05-06 04:41 | 39.79765 | 4.20323 | 37933 ft | 459 kts | 3° |
| 2026-05-06 04:41 | 39.86081 | 4.21561 | 37938 ft | 460 kts | 3° |
| 2026-05-06 04:42 | 39.92399 | 4.22940 | 37945 ft | 461 kts | 5° |
| 2026-05-06 04:42 | 39.97646 | 4.24209 | 37949 ft | 462 kts | 5° |
| 2026-05-06 04:43 | 40.03979 | 4.25759 | 37929 ft | 464 kts | 5° |
| 2026-05-06 04:43 | 40.11365 | 4.27517 | 37927 ft | 465 kts | 5° |
| 2026-05-06 04:44 | 40.16705 | 4.28767 | 37932 ft | 465 kts | 5° |
| 2026-05-06 04:44 | 40.23085 | 4.30269 | 37938 ft | 466 kts | 5° |
| 2026-05-06 04:45 | 40.29426 | 4.31774 | 37938 ft | 466 kts | 5° |
| 2026-05-06 04:45 | 40.35814 | 4.33284 | 37937 ft | 467 kts | 5° |
| 2026-05-06 04:46 | 40.42209 | 4.34800 | 37969 ft | 467 kts | 5° |
| 2026-05-06 04:46 | 40.48600 | 4.36321 | 37950 ft | 467 kts | 5° |
| 2026-05-06 04:47 | 40.55006 | 4.37849 | 37941 ft | 468 kts | 5° |
| 2026-05-06 04:47 | 40.61411 | 4.39379 | 37939 ft | 468 kts | 5° |
| 2026-05-06 04:48 | 40.67821 | 4.40915 | 37939 ft | 468 kts | 5° |
| 2026-05-06 04:48 | 40.74225 | 4.42455 | 37937 ft | 468 kts | 5° |
| 2026-05-06 04:49 | 40.80631 | 4.43996 | 37937 ft | 468 kts | 5° |
| 2026-05-06 04:49 | 40.87038 | 4.45536 | 37947 ft | 468 kts | 5° |
| 2026-05-06 04:50 | 40.93450 | 4.47088 | 37936 ft | 468 kts | 5° |
| 2026-05-06 04:50 | 40.99860 | 4.48648 | 37931 ft | 468 kts | 5° |
| 2026-05-06 04:51 | 41.06270 | 4.50201 | 37957 ft | 469 kts | 5° |
| 2026-05-06 04:51 | 41.12690 | 4.51762 | 37941 ft | 469 kts | 5° |
| 2026-05-06 04:52 | 41.19110 | 4.53323 | 37925 ft | 469 kts | 5° |
| 2026-05-06 04:52 | 41.25530 | 4.54900 | 37923 ft | 469 kts | 5° |
| 2026-05-06 04:53 | 41.31908 | 4.56454 | 37930 ft | 469 kts | 5° |
| 2026-05-06 04:53 | 41.38336 | 4.58026 | 37904 ft | 470 kts | 5° |
| 2026-05-06 04:54 | 41.44761 | 4.59605 | 37918 ft | 470 kts | 5° |
| 2026-05-06 04:54 | 41.51190 | 4.61195 | 37939 ft | 470 kts | 5° |
| 2026-05-06 04:55 | 41.57626 | 4.62784 | 37921 ft | 470 kts | 5° |
| 2026-05-06 04:55 | 41.64067 | 4.64367 | 37919 ft | 471 kts | 5° |
| 2026-05-06 04:56 | 41.70509 | 4.66000 | 37940 ft | 473 kts | 9° |
| 2026-05-06 04:56 | 41.76663 | 4.69307 | 37924 ft | 483 kts | 27° |
| 2026-05-06 04:57 | 41.82423 | 4.73960 | 37914 ft | 484 kts | 28° |
| 2026-05-06 04:57 | 41.88201 | 4.78617 | 37911 ft | 484 kts | 27° |
| 2026-05-06 04:58 | 41.93981 | 4.83271 | 37927 ft | 485 kts | 28° |
| 2026-05-06 04:58 | 41.99757 | 4.87941 | 37925 ft | 485 kts | 28° |
| 2026-05-06 04:59 | 42.05538 | 4.92620 | 37921 ft | 485 kts | 28° |
| 2026-05-06 04:59 | 42.11318 | 4.97302 | 37926 ft | 485 kts | 28° |
| 2026-05-06 05:00 | 42.17099 | 5.02004 | 37920 ft | 486 kts | 28° |
| 2026-05-06 05:00 | 42.22882 | 5.06730 | 37915 ft | 486 kts | 28° |
| 2026-05-06 05:01 | 42.28669 | 5.11455 | 37915 ft | 486 kts | 28° |
| 2026-05-06 05:01 | 42.34457 | 5.16184 | 37928 ft | 486 kts | 28° |
| 2026-05-06 05:02 | 42.40240 | 5.20922 | 37919 ft | 486 kts | 28° |
| 2026-05-06 05:02 | 42.46014 | 5.25668 | 37914 ft | 486 kts | 28° |
| 2026-05-06 05:03 | 42.51790 | 5.30426 | 37938 ft | 485 kts | 29° |
| 2026-05-06 05:03 | 42.57517 | 5.35152 | 37889 ft | 485 kts | 28° |
| 2026-05-06 05:04 | 42.63291 | 5.39930 | 37892 ft | 486 kts | 29° |
| 2026-05-06 05:04 | 42.69058 | 5.44723 | 37888 ft | 486 kts | 29° |
| 2026-05-06 05:05 | 42.74828 | 5.49520 | 37887 ft | 486 kts | 29° |
| 2026-05-06 05:05 | 42.80597 | 5.54331 | 37889 ft | 487 kts | 29° |
| 2026-05-06 05:06 | 42.86372 | 5.59150 | 37892 ft | 487 kts | 29° |
| 2026-05-06 05:06 | 42.92144 | 5.63976 | 37910 ft | 487 kts | 29° |
| 2026-05-06 05:07 | 42.97917 | 5.68814 | 37903 ft | 487 kts | 29° |
| 2026-05-06 05:07 | 43.03688 | 5.73662 | 37879 ft | 487 kts | 29° |
| 2026-05-06 05:08 | 43.09456 | 5.78520 | 37905 ft | 487 kts | 29° |
| 2026-05-06 05:08 | 43.15233 | 5.83395 | 37903 ft | 488 kts | 29° |
| 2026-05-06 05:09 | 43.20999 | 5.88275 | 37902 ft | 488 kts | 30° |
| 2026-05-06 05:09 | 43.26772 | 5.93175 | 37892 ft | 487 kts | 29° |
| 2026-05-06 05:10 | 43.32538 | 5.98080 | 37906 ft | 487 kts | 30° |
| 2026-05-06 05:10 | 43.38460 | 6.02528 | 37906 ft | 483 kts | 17° |
| 2026-05-06 05:11 | 43.44913 | 6.04596 | 37900 ft | 472 kts | 359° |
| 2026-05-06 05:11 | 43.51464 | 6.05239 | 37913 ft | 472 kts | 359° |
| 2026-05-06 05:12 | 43.58019 | 6.05904 | 37907 ft | 473 kts | 360° |
| 2026-05-06 05:12 | 43.64581 | 6.06581 | 37904 ft | 473 kts | 360° |
| 2026-05-06 05:13 | 43.71098 | 6.07242 | 37916 ft | 473 kts | 360° |
| 2026-05-06 05:13 | 43.77617 | 6.08612 | 37905 ft | 479 kts | 14° |
| 2026-05-06 05:14 | 43.83757 | 6.12344 | 37880 ft | 484 kts | 24° |
| 2026-05-06 05:14 | 43.89810 | 6.16483 | 37896 ft | 486 kts | 24° |
| 2026-05-06 05:15 | 43.95882 | 6.20608 | 37893 ft | 486 kts | 24° |
| 2026-05-06 05:15 | 44.01958 | 6.24758 | 37895 ft | 487 kts | 24° |
| 2026-05-06 05:16 | 44.08034 | 6.28931 | 37921 ft | 487 kts | 24° |
| 2026-05-06 05:16 | 44.14104 | 6.33108 | 37914 ft | 487 kts | 24° |
| 2026-05-06 05:17 | 44.20167 | 6.37295 | 37911 ft | 487 kts | 24° |
| 2026-05-06 05:17 | 44.26242 | 6.41487 | 37925 ft | 486 kts | 24° |
| 2026-05-06 05:18 | 44.32301 | 6.45681 | 37928 ft | 486 kts | 24° |
| 2026-05-06 05:18 | 44.38350 | 6.49881 | 37892 ft | 485 kts | 24° |
| 2026-05-06 05:19 | 44.44398 | 6.54091 | 37912 ft | 486 kts | 24° |
| 2026-05-06 05:19 | 44.50443 | 6.58303 | 37924 ft | 485 kts | 24° |
| 2026-05-06 05:20 | 44.56477 | 6.62523 | 37920 ft | 484 kts | 24° |
| 2026-05-06 05:20 | 44.62497 | 6.66742 | 37919 ft | 483 kts | 24° |
| 2026-05-06 05:21 | 44.68516 | 6.70965 | 37910 ft | 483 kts | 24° |
| 2026-05-06 05:21 | 44.74529 | 6.75190 | 37912 ft | 483 kts | 24° |
| 2026-05-06 05:22 | 44.80825 | 6.78206 | 37924 ft | 476 kts | 6° |
| 2026-05-06 05:22 | 44.87309 | 6.78554 | 37909 ft | 467 kts | 352° |
| 2026-05-06 05:23 | 44.93814 | 6.78122 | 37897 ft | 468 kts | 353° |
| 2026-05-06 05:23 | 45.03589 | 6.77490 | 37893 ft | 468 kts | 353° |
| 2026-05-06 05:24 | 45.10104 | 6.77068 | 37900 ft | 469 kts | 353° |
| 2026-05-06 05:24 | 45.16621 | 6.76641 | 37890 ft | 469 kts | 353° |
| 2026-05-06 05:25 | 45.23136 | 6.76209 | 37895 ft | 469 kts | 353° |
| 2026-05-06 05:25 | 45.29651 | 6.75764 | 37891 ft | 469 kts | 353° |
| 2026-05-06 05:26 | 45.36165 | 6.75327 | 37888 ft | 468 kts | 353° |
| 2026-05-06 05:26 | 45.42685 | 6.75190 | 37891 ft | 472 kts | 3° |
| 2026-05-06 05:27 | 45.49038 | 6.77601 | 37882 ft | 477 kts | 24° |
| 2026-05-06 05:27 | 45.54818 | 6.82233 | 37867 ft | 478 kts | 29° |
| 2026-05-06 05:28 | 45.60561 | 6.86997 | 37887 ft | 477 kts | 29° |
| 2026-05-06 05:28 | 45.66297 | 6.91751 | 37878 ft | 476 kts | 29° |
| 2026-05-06 05:29 | 45.71969 | 6.96487 | 37874 ft | 475 kts | 30° |
| 2026-05-06 05:29 | 45.76749 | 7.00489 | 37890 ft | 475 kts | 30° |
| 2026-05-06 05:30 | 45.83377 | 7.06049 | 37888 ft | 475 kts | 30° |
| 2026-05-06 05:30 | 45.89075 | 7.10840 | 37868 ft | 474 kts | 30° |
| 2026-05-06 05:31 | 45.93850 | 7.14860 | 37831 ft | 475 kts | 30° |
| 2026-05-06 05:31 | 45.99556 | 7.19672 | 37832 ft | 476 kts | 30° |
| 2026-05-06 05:32 | 46.05261 | 7.24504 | 37819 ft | 476 kts | 30° |
| 2026-05-06 05:32 | 46.10968 | 7.29363 | 37828 ft | 476 kts | 30° |
| 2026-05-06 05:33 | 46.16671 | 7.34233 | 37843 ft | 477 kts | 30° |
| 2026-05-06 05:33 | 46.22334 | 7.39073 | 37833 ft | 476 kts | 30° |
| 2026-05-06 05:34 | 46.28045 | 7.43948 | 37850 ft | 477 kts | 30° |
| 2026-05-06 05:34 | 46.33751 | 7.48834 | 37855 ft | 476 kts | 31° |
| 2026-05-06 05:35 | 46.39445 | 7.53737 | 37839 ft | 476 kts | 31° |
| 2026-05-06 05:35 | 46.45133 | 7.58645 | 37840 ft | 476 kts | 31° |
| 2026-05-06 05:36 | 46.50820 | 7.63560 | 37834 ft | 476 kts | 31° |
| 2026-05-06 05:36 | 46.56505 | 7.68487 | 37839 ft | 476 kts | 31° |
| 2026-05-06 05:37 | 46.62221 | 7.73345 | 37842 ft | 476 kts | 28° |
| 2026-05-06 05:37 | 46.68086 | 7.77815 | 37835 ft | 475 kts | 26° |
| 2026-05-06 05:38 | 46.73988 | 7.82175 | 37837 ft | 476 kts | 27° |
| 2026-05-06 05:38 | 46.79861 | 7.86628 | 37839 ft | 476 kts | 27° |
| 2026-05-06 05:39 | 46.85702 | 7.91161 | 37836 ft | 476 kts | 28° |
| 2026-05-06 05:39 | 46.91543 | 7.95716 | 37845 ft | 476 kts | 27° |
| 2026-05-06 05:40 | 46.97387 | 8.00253 | 37847 ft | 476 kts | 27° |
| 2026-05-06 05:40 | 47.03233 | 8.04800 | 37844 ft | 475 kts | 27° |
| 2026-05-06 05:41 | 47.09079 | 8.09347 | 37845 ft | 475 kts | 27° |
| 2026-05-06 05:41 | 47.14916 | 8.13901 | 37848 ft | 475 kts | 27° |
| 2026-05-06 05:42 | 47.20750 | 8.18480 | 37840 ft | 475 kts | 28° |
| 2026-05-06 05:42 | 47.26542 | 8.23039 | 37839 ft | 475 kts | 28° |
| 2026-05-06 05:43 | 47.32368 | 8.27625 | 37841 ft | 475 kts | 28° |
| 2026-05-06 05:43 | 47.38195 | 8.32218 | 37830 ft | 475 kts | 28° |
| 2026-05-06 05:44 | 47.44023 | 8.36825 | 37820 ft | 475 kts | 27° |
| 2026-05-06 05:44 | 47.49851 | 8.41453 | 37830 ft | 476 kts | 27° |
| 2026-05-06 05:45 | 47.55678 | 8.46090 | 37838 ft | 475 kts | 27° |
| 2026-05-06 05:45 | 47.61506 | 8.50735 | 37839 ft | 475 kts | 27° |
| 2026-05-06 05:46 | 47.67325 | 8.55400 | 37840 ft | 475 kts | 28° |
| 2026-05-06 05:46 | 47.73140 | 8.60067 | 37849 ft | 475 kts | 28° |
| 2026-05-06 05:47 | 47.78955 | 8.64734 | 37841 ft | 475 kts | 28° |
| 2026-05-06 05:47 | 47.84762 | 8.69413 | 37840 ft | 474 kts | 28° |
| 2026-05-06 05:48 | 47.90564 | 8.74098 | 37839 ft | 474 kts | 28° |
| 2026-05-06 05:48 | 47.96356 | 8.78787 | 37839 ft | 474 kts | 28° |
| 2026-05-06 05:49 | 48.02145 | 8.83488 | 37836 ft | 473 kts | 28° |
| 2026-05-06 05:49 | 48.07933 | 8.88204 | 37830 ft | 474 kts | 28° |
| 2026-05-06 05:50 | 48.10822 | 8.90562 | 37681 ft | 475 kts | 28° |
| 2026-05-06 05:50 | 48.13714 | 8.92894 | 36725 ft | 478 kts | 25° |
| 2026-05-06 05:50 | 48.16826 | 8.94769 | 35598 ft | 476 kts | 15° |
| 2026-05-06 05:50 | 48.20064 | 8.95858 | 34386 ft | 477 kts | 4° |
| 2026-05-06 05:51 | 48.23284 | 8.96314 | 33844 ft | 463 kts | 2° |
| 2026-05-06 05:51 | 48.26448 | 8.96768 | 33286 ft | 450 kts | 2° |
| 2026-05-06 05:51 | 48.29519 | 8.97239 | 32785 ft | 437 kts | 2° |
| 2026-05-06 05:51 | 48.32502 | 8.97713 | 32284 ft | 425 kts | 2° |
| 2026-05-06 05:52 | 48.35407 | 8.98173 | 31804 ft | 414 kts | 2° |
| 2026-05-06 05:52 | 48.38258 | 8.98615 | 31344 ft | 412 kts | 1° |
| 2026-05-06 05:52 | 48.41107 | 8.99048 | 30870 ft | 411 kts | 1° |
| 2026-05-06 05:52 | 48.43946 | 8.99479 | 30415 ft | 409 kts | 1° |
| 2026-05-06 05:53 | 48.46773 | 8.99907 | 29963 ft | 408 kts | 1° |
| 2026-05-06 05:53 | 48.49596 | 9.00336 | 29462 ft | 407 kts | 1° |
| 2026-05-06 05:53 | 48.52397 | 9.00766 | 29037 ft | 403 kts | 1° |
| 2026-05-06 05:53 | 48.55177 | 9.01191 | 28607 ft | 399 kts | 1° |
| 2026-05-06 05:54 | 48.57927 | 9.01611 | 28189 ft | 396 kts | 1° |
| 2026-05-06 05:54 | 48.60651 | 9.02030 | 27780 ft | 393 kts | 1° |
| 2026-05-06 05:54 | 48.63365 | 9.02456 | 27353 ft | 390 kts | 2° |
| 2026-05-06 05:54 | 48.66044 | 9.02987 | 26933 ft | 388 kts | 4° |
| 2026-05-06 05:55 | 48.68702 | 9.03611 | 26501 ft | 386 kts | 5° |
| 2026-05-06 05:55 | 48.71343 | 9.04279 | 26061 ft | 384 kts | 6° |
| 2026-05-06 05:55 | 48.73971 | 9.04961 | 25619 ft | 382 kts | 6° |
| 2026-05-06 05:55 | 48.76590 | 9.05632 | 25165 ft | 381 kts | 5° |
| 2026-05-06 05:56 | 48.79206 | 9.06283 | 24703 ft | 380 kts | 5° |
| 2026-05-06 05:56 | 48.81812 | 9.06917 | 24226 ft | 379 kts | 5° |
| 2026-05-06 05:56 | 48.84410 | 9.07540 | 23757 ft | 378 kts | 5° |
| 2026-05-06 05:56 | 48.87006 | 9.08157 | 23262 ft | 377 kts | 5° |
| 2026-05-06 05:57 | 48.89600 | 9.08732 | 22755 ft | 375 kts | 3° |
| 2026-05-06 05:57 | 48.92181 | 9.09167 | 22295 ft | 371 kts | 2° |
| 2026-05-06 05:57 | 48.94742 | 9.09513 | 21848 ft | 368 kts | 1° |
| 2026-05-06 05:57 | 48.97292 | 9.09823 | 21386 ft | 367 kts | 1° |
| 2026-05-06 05:58 | 48.99826 | 9.10129 | 20956 ft | 364 kts | 1° |
| 2026-05-06 05:58 | 49.02347 | 9.10446 | 20507 ft | 363 kts | 2° |
| 2026-05-06 05:58 | 49.04860 | 9.10780 | 20053 ft | 362 kts | 2° |
| 2026-05-06 05:58 | 49.07364 | 9.11129 | 19602 ft | 361 kts | 2° |
| 2026-05-06 05:59 | 49.09868 | 9.11490 | 19151 ft | 361 kts | 3° |
| 2026-05-06 05:59 | 49.12364 | 9.11854 | 18703 ft | 361 kts | 3° |
| 2026-05-06 05:59 | 49.14864 | 9.12223 | 18254 ft | 360 kts | 3° |
| 2026-05-06 05:59 | 49.17357 | 9.12586 | 17768 ft | 360 kts | 3° |
| 2026-05-06 06:00 | 49.19851 | 9.12943 | 17312 ft | 359 kts | 3° |
| 2026-05-06 06:00 | 49.22331 | 9.13296 | 16869 ft | 357 kts | 3° |
| 2026-05-06 06:00 | 49.24799 | 9.13648 | 16425 ft | 356 kts | 3° |
| 2026-05-06 06:00 | 49.27259 | 9.14002 | 15979 ft | 355 kts | 3° |
| 2026-05-06 06:01 | 49.29695 | 9.14619 | 15517 ft | 356 kts | 11° |
| 2026-05-06 06:01 | 49.32112 | 9.15467 | 15066 ft | 356 kts | 11° |
| 2026-05-06 06:01 | 49.34486 | 9.16308 | 14609 ft | 356 kts | 11° |
| 2026-05-06 06:01 | 49.36880 | 9.17162 | 14312 ft | 351 kts | 11° |
| 2026-05-06 06:02 | 49.39256 | 9.18009 | 13925 ft | 349 kts | 11° |
| 2026-05-06 06:02 | 49.41613 | 9.18849 | 13453 ft | 345 kts | 11° |
| 2026-05-06 06:02 | 49.43972 | 9.19690 | 12721 ft | 342 kts | 11° |
| 2026-05-06 06:02 | 49.46272 | 9.20511 | 12115 ft | 336 kts | 11° |
| 2026-05-06 06:03 | 49.48512 | 9.21310 | 11649 ft | 326 kts | 11° |
| 2026-05-06 06:03 | 49.50662 | 9.22077 | 11227 ft | 317 kts | 11° |
| 2026-05-06 06:03 | 49.52785 | 9.22837 | 10787 ft | 312 kts | 11° |
| 2026-05-06 06:03 | 49.54888 | 9.23586 | 10615 ft | 309 kts | 11° |
| 2026-05-06 06:04 | 49.56981 | 9.24331 | 10539 ft | 309 kts | 11° |
| 2026-05-06 06:04 | 49.59072 | 9.25072 | 10417 ft | 307 kts | 11° |
| 2026-05-06 06:04 | 49.61153 | 9.25810 | 10300 ft | 307 kts | 11° |
| 2026-05-06 06:04 | 49.63231 | 9.26551 | 10174 ft | 306 kts | 11° |
| 2026-05-06 06:05 | 49.65300 | 9.27290 | 10051 ft | 305 kts | 11° |
| 2026-05-06 06:05 | 49.67364 | 9.28030 | 9942 ft | 305 kts | 11° |
| 2026-05-06 06:05 | 49.69422 | 9.28770 | 9819 ft | 304 kts | 11° |
| 2026-05-06 06:05 | 49.71476 | 9.29510 | 9637 ft | 303 kts | 11° |
| 2026-05-06 06:06 | 49.73525 | 9.30249 | 9403 ft | 301 kts | 11° |
| 2026-05-06 06:06 | 49.75566 | 9.30985 | 9183 ft | 301 kts | 11° |
| 2026-05-06 06:06 | 49.77599 | 9.31721 | 8970 ft | 300 kts | 11° |
| 2026-05-06 06:06 | 49.79625 | 9.32456 | 8756 ft | 298 kts | 11° |
| 2026-05-06 06:07 | 49.81643 | 9.33183 | 8541 ft | 297 kts | 9° |
| 2026-05-06 06:07 | 49.83672 | 9.33343 | 8342 ft | 290 kts | 346° |
| 2026-05-06 06:07 | 49.85516 | 9.32245 | 8131 ft | 281 kts | 322° |
| 2026-05-06 06:07 | 49.86886 | 9.30179 | 7929 ft | 272 kts | 300° |
| 2026-05-06 06:08 | 49.87635 | 9.27540 | 7736 ft | 267 kts | 283° |
| 2026-05-06 06:08 | 49.88160 | 9.24783 | 7546 ft | 267 kts | 283° |
| 2026-05-06 06:08 | 49.88686 | 9.22032 | 7361 ft | 266 kts | 284° |
| 2026-05-06 06:08 | 49.89209 | 9.19289 | 7171 ft | 265 kts | 283° |
| 2026-05-06 06:09 | 49.89728 | 9.16558 | 6994 ft | 263 kts | 283° |
| 2026-05-06 06:09 | 49.90244 | 9.13839 | 6794 ft | 262 kts | 283° |
| 2026-05-06 06:09 | 49.90759 | 9.11132 | 6612 ft | 261 kts | 284° |
| 2026-05-06 06:09 | 49.91275 | 9.08431 | 6425 ft | 261 kts | 284° |
| 2026-05-06 06:10 | 49.92069 | 9.05888 | 6235 ft | 265 kts | 302° |
| 2026-05-06 06:10 | 49.93365 | 9.03827 | 6040 ft | 270 kts | 320° |
| 2026-05-06 06:10 | 49.95044 | 9.02494 | 5846 ft | 275 kts | 338° |
| 2026-05-06 06:10 | 49.96867 | 9.01587 | 5656 ft | 274 kts | 338° |
| 2026-05-06 06:11 | 49.98681 | 9.00680 | 5462 ft | 273 kts | 338° |
| 2026-05-06 06:11 | 50.00481 | 8.99778 | 5274 ft | 272 kts | 338° |
| 2026-05-06 06:11 | 50.02280 | 8.98873 | 5110 ft | 271 kts | 338° |
| 2026-05-06 06:11 | 50.04070 | 8.97968 | 5002 ft | 270 kts | 338° |
| 2026-05-06 06:12 | 50.05843 | 8.97074 | 4904 ft | 263 kts | 338° |
| 2026-05-06 06:12 | 50.07546 | 8.96221 | 4778 ft | 250 kts | 338° |
| 2026-05-06 06:12 | 50.09163 | 8.95414 | 4679 ft | 240 kts | 338° |
| 2026-05-06 06:12 | 50.10695 | 8.94473 | 4570 ft | 232 kts | 321° |
| 2026-05-06 06:13 | 50.11606 | 8.92548 | 4465 ft | 221 kts | 282° |
| 2026-05-06 06:13 | 50.11512 | 8.90230 | 4299 ft | 217 kts | 250° |
| 2026-05-06 06:13 | 50.10998 | 8.88020 | 4138 ft | 217 kts | 249° |
| 2026-05-06 06:13 | 50.10467 | 8.85814 | 3975 ft | 217 kts | 248° |
| 2026-05-06 06:14 | 50.09932 | 8.83653 | 3734 ft | 212 kts | 248° |
| 2026-05-06 06:14 | 50.09420 | 8.81514 | 3461 ft | 207 kts | 249° |
| 2026-05-06 06:14 | 50.08941 | 8.79486 | 3194 ft | 193 kts | 249° |
| 2026-05-06 06:14 | 50.08492 | 8.77586 | 2956 ft | 179 kts | 250° |
| 2026-05-06 06:15 | 50.08081 | 8.75845 | 2725 ft | 164 kts | 249° |
| 2026-05-06 06:15 | 50.07704 | 8.74251 | 2517 ft | 153 kts | 249° |
| 2026-05-06 06:15 | 50.07347 | 8.72740 | 2303 ft | 146 kts | 249° |
| 2026-05-06 06:15 | 50.07012 | 8.71323 | 2100 ft | 134 kts | 249° |
| 2026-05-06 06:16 | 50.06696 | 8.69990 | 1918 ft | 130 kts | 248° |
| 2026-05-06 06:16 | 50.06489 | 8.69119 | 1801 ft | 130 kts | 248° |
| 2026-05-06 06:16 | 50.06173 | 8.67794 | 1626 ft | 131 kts | 248° |
| 2026-05-06 06:16 | 50.05864 | 8.66460 | 1423 ft | 131 kts | 249° |
| 2026-05-06 06:17 | 50.05548 | 8.65128 | 1236 ft | 131 kts | 248° |
| 2026-05-06 06:17 | 50.05233 | 8.63795 | 1074 ft | 132 kts | 247° |
| 2026-05-06 06:17 | 50.04920 | 8.62465 | 921 ft | 132 kts | 246° |
| 2026-05-06 06:17 | 50.04596 | 8.61114 | 725 ft | 134 kts | 248° |
| 2026-05-06 06:18 | 50.04268 | 8.59740 | 576 ft | 137 kts | 245° |
| 2026-05-06 06:18 | 50.03934 | 8.58335 | 398 ft | 138 kts | 245° |
| 2026-05-06 06:18 | 50.03615 | 8.57028 | 356 ft | 108 kts | 249° |
| 2026-05-06 06:18 | 50.03461 | 8.56369 | 358 ft | 25 kts | 250° |
| 2026-05-06 06:19 | 50.03436 | 8.56098 | 358 ft | 27 kts | 276° |
| 2026-05-06 06:19 | 50.03457 | 8.55871 | 345 ft | 18 kts | 279° |
| 2026-05-06 06:19 | 50.03493 | 8.55715 | 348 ft | 13 kts | 329° |
| 2026-05-06 06:19 | 50.03558 | 8.55755 | 352 ft | 10 kts | 58° |
| 2026-05-06 06:20 | 50.03582 | 8.55849 | 356 ft | 13 kts | 70° |
| 2026-05-06 06:20 | 50.03626 | 8.56036 | 358 ft | 19 kts | 70° |
| 2026-05-06 06:20 | 50.03672 | 8.56224 | 361 ft | 18 kts | 70° |
| 2026-05-06 06:20 | 50.03715 | 8.56405 | 356 ft | 17 kts | 70° |
| 2026-05-06 06:21 | 50.03755 | 8.56574 | 361 ft | 16 kts | 69° |
| 2026-05-06 06:21 | 50.03830 | 8.56663 | 354 ft | 13 kts | 10° |
| 2026-05-06 06:21 | 50.03922 | 8.56691 | 357 ft | 15 kts | 11° |
| 2026-05-06 06:21 | 50.04018 | 8.56721 | 357 ft | 13 kts | 11° |
| 2026-05-06 06:22 | 50.04102 | 8.56747 | 366 ft | 13 kts | 11° |
| 2026-05-06 06:22 | 50.04187 | 8.56775 | 360 ft | 12 kts | 13° |
| 2026-05-06 06:22 | 50.04260 | 8.56799 | 363 ft | 10 kts | 11° |
| 2026-05-06 06:22 | 50.04325 | 8.56821 | 360 ft | 11 kts | 12° |
| 2026-05-06 06:23 | 50.04405 | 8.56844 | 363 ft | 13 kts | 7° |
| 2026-05-06 06:23 | 50.04498 | 8.56871 | 359 ft | 14 kts | 13° |
| 2026-05-06 06:23 | 50.04591 | 8.56906 | 360 ft | 15 kts | 14° |
| 2026-05-06 06:23 | 50.04689 | 8.56959 | 358 ft | 15 kts | 24° |
| 2026-05-06 06:24 | 50.04778 | 8.57023 | 358 ft | 14 kts | 25° |
| 2026-05-06 06:24 | 50.04841 | 8.57073 | 360 ft | 7 kts | 45° |
| 2026-05-06 06:24 | 50.04830 | 8.57128 | 362 ft | 5 kts | 114° |
| 2026-05-06 06:24 | 50.04816 | 8.57173 | 359 ft | 4 kts | 115° |
| 2026-05-06 06:25 | 50.04815 | 8.57180 | 360 ft | 0 kts | 114° |